createdAt,value
2023-05-21T00:01:25.671Z,64.33
2023-05-21T00:03:52.288Z,64.58
2023-05-21T00:06:21.288Z,64.47
2023-05-21T00:08:48.118Z,64.87
2023-05-21T00:11:14.603Z,64.77
2023-05-21T00:13:41.072Z,65.04
2023-05-21T00:16:11.428Z,65.37
2023-05-21T00:18:40.434Z,65.67
2023-05-21T00:21:06.992Z,65.70
2023-05-21T00:23:34.225Z,65.86
2023-05-21T00:26:01.517Z,66.19
2023-05-21T00:28:28.008Z,66.61
2023-05-21T00:30:54.739Z,66.34
2023-05-21T00:33:22.296Z,66.46
2023-05-21T00:35:48.758Z,66.74
2023-05-21T00:38:17.754Z,67.02
2023-05-21T00:40:45.023Z,67.01
2023-05-21T00:43:14.929Z,67.13
2023-05-21T00:45:46.828Z,67.22
2023-05-21T00:48:14.805Z,66.95
2023-05-21T00:50:43.526Z,67.28
2023-05-21T00:53:10.809Z,67.47
2023-05-21T00:55:39.805Z,67.25
2023-05-21T00:58:07.381Z,67.45
2023-05-21T01:00:34.954Z,67.81
2023-05-21T01:03:05.196Z,67.94
2023-05-21T01:05:33.197Z,68.06
2023-05-21T01:08:00.495Z,68.68
2023-05-21T01:10:27.774Z,68.95
2023-05-21T01:12:57.717Z,68.63
2023-05-21T01:15:24.654Z,68.86
2023-05-21T01:17:52.040Z,69.30
2023-05-21T01:20:20.544Z,69.29
2023-05-21T01:22:55.445Z,69.31
2023-05-21T01:25:23.476Z,69.14
2023-05-21T01:27:50.944Z,69.27
2023-05-21T01:30:18.592Z,69.70
2023-05-21T01:32:55.019Z,70.04
2023-05-21T01:35:27.180Z,69.97
2023-05-21T01:38:29.725Z,70.44
2023-05-21T01:41:05.067Z,70.48
2023-05-21T01:43:39.076Z,70.10
2023-05-21T01:46:07.769Z,70.02
2023-05-21T01:48:35.321Z,70.19
2023-05-21T01:51:04.951Z,70.20
2023-05-21T01:53:34.248Z,70.66
2023-05-21T01:56:00.889Z,70.72
2023-05-21T01:58:27.334Z,70.99
2023-05-21T02:00:53.862Z,71.23
2023-05-21T02:03:22.572Z,71.23
2023-05-21T02:05:49.311Z,71.25
2023-05-21T02:08:15.813Z,71.44
2023-05-21T02:10:42.337Z,71.76
2023-05-21T02:13:09.091Z,71.51
2023-05-21T02:15:35.931Z,71.93
2023-05-21T02:18:03.965Z,71.50
2023-05-21T02:20:30.916Z,71.92
2023-05-21T02:22:57.458Z,72.00
2023-05-21T02:25:29.128Z,71.95
2023-05-21T02:27:56.784Z,71.86
2023-05-21T02:30:23.645Z,72.17
2023-05-21T02:32:51.000Z,72.02
2023-05-21T02:35:17.848Z,72.36
2023-05-21T02:37:44.703Z,72.48
2023-05-21T02:40:13.478Z,72.28
2023-05-21T02:42:41.894Z,72.56
2023-05-21T02:45:13.567Z,72.67
2023-05-21T02:47:41.373Z,72.55
2023-05-21T02:50:09.376Z,72.40
2023-05-21T02:52:36.663Z,73.11
2023-05-21T02:55:03.221Z,72.72
2023-05-21T02:57:29.765Z,73.12
2023-05-21T02:59:56.523Z,73.32
2023-05-21T03:02:26.300Z,73.31
2023-05-21T03:04:54.072Z,73.34
2023-05-21T03:07:20.750Z,73.47
2023-05-21T03:09:48.048Z,73.36
2023-05-21T03:12:15.310Z,73.55
2023-05-21T03:14:46.448Z,73.23
2023-05-21T03:17:17.320Z,73.63
2023-05-21T03:19:46.378Z,73.47
2023-05-21T03:22:12.889Z,73.73
2023-05-21T03:24:39.972Z,73.71
2023-05-21T03:27:06.808Z,74.00
2023-05-21T03:29:34.381Z,74.67
2023-05-21T03:32:01.536Z,74.11
2023-05-21T03:34:29.115Z,74.08
2023-05-21T03:36:55.644Z,74.17
2023-05-21T03:39:22.607Z,74.14
2023-05-21T03:41:49.118Z,73.94
2023-05-21T03:44:16.243Z,73.79
2023-05-21T03:46:43.048Z,73.88
2023-05-21T03:49:12.301Z,73.86
2023-05-21T03:51:39.638Z,74.25
2023-05-21T03:54:06.240Z,74.27
2023-05-21T03:56:33.741Z,74.10
2023-05-21T03:59:00.265Z,74.62
2023-05-21T04:01:28.291Z,74.25
2023-05-21T04:03:55.099Z,74.43
2023-05-21T04:06:23.091Z,74.34
2023-05-21T04:08:49.949Z,74.60
2023-05-21T04:11:17.826Z,74.88
2023-05-21T04:13:44.591Z,75.13
2023-05-21T04:16:14.915Z,74.72
2023-05-21T04:18:45.646Z,74.62
2023-05-21T04:21:12.749Z,75.30
2023-05-21T04:23:40.380Z,75.04
2023-05-21T04:26:07.709Z,75.00
2023-05-21T04:28:35.382Z,74.76
2023-05-21T04:31:02.229Z,74.92
2023-05-21T04:33:30.385Z,74.94
2023-05-21T04:35:57.905Z,74.80
2023-05-21T04:38:24.975Z,74.75
2023-05-21T04:40:52.333Z,75.04
2023-05-21T04:43:26.208Z,74.87
2023-05-21T04:45:55.067Z,74.93
2023-05-21T04:48:24.792Z,74.71
2023-05-21T04:50:53.251Z,75.30
2023-05-21T04:53:23.009Z,74.89
2023-05-21T04:55:50.943Z,74.65
2023-05-21T04:58:20.385Z,74.86
2023-05-21T05:00:49.438Z,74.76
2023-05-21T05:03:16.543Z,75.06
2023-05-21T05:05:43.342Z,74.33
2023-05-21T05:08:10.972Z,74.32
2023-05-21T05:10:37.926Z,74.21
2023-05-21T05:13:05.050Z,74.22
2023-05-21T05:15:32.136Z,74.12
2023-05-21T05:17:58.817Z,74.06
2023-05-21T05:20:31.188Z,73.99
2023-05-21T05:22:57.676Z,74.08
2023-05-21T05:25:24.437Z,73.79
2023-05-21T05:27:50.910Z,73.53
2023-05-21T05:30:17.649Z,73.67
2023-05-21T05:32:45.919Z,73.33
2023-05-21T05:35:12.821Z,73.15
2023-05-21T05:37:39.618Z,73.00
2023-05-21T05:40:07.591Z,72.56
2023-05-21T05:42:34.095Z,72.83
2023-05-21T05:45:00.870Z,72.76
2023-05-21T05:47:29.605Z,72.37
2023-05-21T05:49:56.431Z,72.44
2023-05-21T05:52:23.222Z,72.24
2023-05-21T05:54:49.981Z,72.13
2023-05-21T05:57:16.709Z,71.31
2023-05-21T05:59:43.520Z,71.07
2023-05-21T06:02:10.158Z,71.12
2023-05-21T06:04:36.869Z,70.32
2023-05-21T06:07:05.444Z,70.49
2023-05-21T06:09:37.298Z,70.39
2023-05-21T06:12:04.404Z,70.58
2023-05-21T06:14:31.099Z,70.50
2023-05-21T06:16:57.568Z,70.52
2023-05-21T06:19:24.524Z,70.66
2023-05-21T06:21:51.099Z,70.46
2023-05-21T06:24:17.882Z,70.01
2023-05-21T06:26:46.504Z,70.13
2023-05-21T06:29:15.750Z,70.04
2023-05-21T06:31:42.183Z,69.84
2023-05-21T06:34:09.380Z,69.75
2023-05-21T06:36:35.961Z,69.89
2023-05-21T06:39:04.413Z,69.58
2023-05-21T06:41:31.346Z,69.50
2023-05-21T06:43:58.068Z,69.19
2023-05-21T06:46:24.617Z,68.88
2023-05-21T06:48:51.217Z,69.31
2023-05-21T06:51:17.807Z,69.01
2023-05-21T06:53:44.853Z,69.07
2023-05-21T06:56:11.467Z,68.47
2023-05-21T06:58:38.193Z,68.78
2023-05-21T07:01:05.479Z,68.66
2023-05-21T07:03:32.082Z,68.39
2023-05-21T07:05:58.787Z,68.41
2023-05-21T07:08:25.626Z,67.74
2023-05-21T07:10:52.561Z,67.64
2023-05-21T07:13:19.092Z,67.64
2023-05-21T07:15:45.673Z,66.96
2023-05-21T07:18:12.451Z,66.78
2023-05-21T07:20:39.047Z,67.06
2023-05-21T07:23:05.524Z,67.22
2023-05-21T07:25:32.979Z,66.96
2023-05-21T07:27:59.928Z,67.10
2023-05-21T07:30:26.495Z,66.41
2023-05-21T07:32:53.088Z,66.06
2023-05-21T07:35:20.454Z,66.05
2023-05-21T07:37:47.854Z,64.55
2023-05-21T07:40:15.210Z,64.31
2023-05-21T07:42:41.755Z,63.49
2023-05-21T07:45:08.559Z,62.58
2023-05-21T07:47:35.315Z,61.75
2023-05-21T07:50:01.814Z,62.47
2023-05-21T07:52:28.283Z,61.09
2023-05-21T07:54:54.757Z,60.15
2023-05-21T07:57:23.706Z,60.21
2023-05-21T07:59:50.196Z,59.74
2023-05-21T08:02:16.972Z,59.64
2023-05-21T08:04:44.539Z,59.65
2023-05-21T08:07:11.039Z,59.10
2023-05-21T08:09:37.541Z,58.24
2023-05-21T08:12:04.391Z,59.19
2023-05-21T08:14:32.335Z,59.79
2023-05-21T08:17:01.447Z,59.63
2023-05-21T08:19:28.298Z,59.88
2023-05-21T08:21:55.140Z,61.10
2023-05-21T08:24:21.928Z,61.24
2023-05-21T08:26:50.658Z,61.09
2023-05-21T08:29:17.456Z,60.34
2023-05-21T08:31:44.253Z,60.01
2023-05-21T08:34:12.152Z,60.21
2023-05-21T08:36:38.809Z,61.07
2023-05-21T08:39:05.542Z,61.52
2023-05-21T08:41:35.924Z,61.44
2023-05-21T08:44:06.245Z,60.78
2023-05-21T08:46:36.899Z,61.54
2023-05-21T08:49:03.945Z,61.73
2023-05-21T08:51:31.419Z,61.72
2023-05-21T08:54:01.270Z,61.51
2023-05-21T08:56:31.431Z,60.73
2023-05-21T08:58:59.714Z,61.32
2023-05-21T09:01:27.231Z,61.34
2023-05-21T09:04:04.809Z,60.61
2023-05-21T09:06:36.720Z,60.54
2023-05-21T09:09:12.539Z,60.04
2023-05-21T09:11:39.393Z,60.19
2023-05-21T09:14:06.834Z,58.87
2023-05-21T09:16:33.344Z,57.79
2023-05-21T09:19:04.597Z,58.58
2023-05-21T09:21:31.753Z,57.58
2023-05-21T09:24:02.138Z,56.50
2023-05-21T09:26:28.651Z,57.07
2023-05-21T09:29:00.880Z,55.80
2023-05-21T09:31:27.826Z,55.54
2023-05-21T09:33:55.833Z,55.50
2023-05-21T09:36:22.777Z,55.27
2023-05-21T09:38:52.411Z,52.67
2023-05-21T09:41:32.727Z,52.70
2023-05-21T09:44:02.812Z,53.38
2023-05-21T09:46:42.592Z,53.21
2023-05-21T09:49:30.294Z,52.06
2023-05-21T09:52:00.312Z,51.95
2023-05-21T09:54:33.108Z,51.35
2023-05-21T09:57:03.382Z,52.06
2023-05-21T09:59:40.584Z,51.49
2023-05-21T10:02:37.934Z,51.50
2023-05-21T10:05:09.169Z,51.98
2023-05-21T10:07:41.701Z,51.44
2023-05-21T10:10:12.822Z,50.99
2023-05-21T10:12:44.885Z,51.02
2023-05-21T10:15:15.742Z,50.27
2023-05-21T10:17:44.513Z,49.25
2023-05-21T10:20:12.399Z,49.14
2023-05-21T10:22:39.982Z,49.16
2023-05-21T10:25:10.444Z,49.28
2023-05-21T10:27:37.906Z,49.40
2023-05-21T10:30:07.057Z,49.14
2023-05-21T10:32:33.849Z,50.15
2023-05-21T10:35:02.443Z,48.63
2023-05-21T10:37:29.797Z,49.17
2023-05-21T10:39:56.573Z,47.96
2023-05-21T10:43:02.494Z,46.66
2023-05-21T10:45:48.208Z,46.59
2023-05-21T10:48:39.613Z,45.99
2023-05-21T10:51:32.209Z,45.75
2023-05-21T10:54:39.451Z,44.30
2023-05-21T10:57:11.799Z,44.78
2023-05-21T10:59:44.022Z,44.14
2023-05-21T11:02:14.132Z,43.84
2023-05-21T11:04:43.257Z,43.96
2023-05-21T11:07:10.071Z,43.98
2023-05-21T11:09:37.827Z,43.30
2023-05-21T11:12:05.155Z,43.67
2023-05-21T11:14:43.556Z,43.57
2023-05-21T11:17:16.511Z,44.01
2023-05-21T11:19:47.316Z,43.68
2023-05-21T11:22:25.893Z,43.10
2023-05-21T11:25:02.125Z,42.98
2023-05-21T11:27:42.545Z,43.24
2023-05-21T11:30:18.964Z,43.77
2023-05-21T11:33:15.654Z,42.35
2023-05-21T11:35:49.079Z,43.40
2023-05-21T11:38:15.634Z,43.33
2023-05-21T11:41:05.768Z,43.07
2023-05-21T11:43:32.358Z,42.97
2023-05-21T11:46:00.862Z,43.05
2023-05-21T11:48:30.540Z,43.04
2023-05-21T11:50:58.586Z,42.72
2023-05-21T11:53:25.435Z,42.87
2023-05-21T11:55:57.350Z,43.08
2023-05-21T11:58:26.911Z,42.45
2023-05-21T12:00:53.512Z,42.98
2023-05-21T12:03:27.280Z,42.97
2023-05-21T12:05:54.422Z,42.39
2023-05-21T12:08:27.626Z,43.15
2023-05-21T12:11:02.222Z,43.23
2023-05-21T12:13:28.924Z,42.67
2023-05-21T12:15:56.190Z,42.40
2023-05-21T12:18:22.964Z,41.96
2023-05-21T12:20:52.291Z,41.63
2023-05-21T12:23:25.902Z,42.04
2023-05-21T12:25:56.829Z,41.83
2023-05-21T12:28:24.946Z,42.22
2023-05-21T12:30:52.401Z,42.00
2023-05-21T12:33:19.506Z,41.52
2023-05-21T12:35:50.354Z,42.03
2023-05-21T12:38:17.227Z,42.45
2023-05-21T12:40:45.656Z,42.21
2023-05-21T12:43:12.565Z,41.95
2023-05-21T12:45:39.713Z,41.97
2023-05-21T12:48:06.872Z,42.12
2023-05-21T12:50:33.924Z,41.68
2023-05-21T12:53:00.675Z,42.07
2023-05-21T12:55:27.204Z,42.17
2023-05-21T12:58:08.361Z,40.51
2023-05-21T13:00:35.817Z,41.00
2023-05-21T13:03:04.464Z,41.18
2023-05-21T13:05:31.728Z,40.99
2023-05-21T13:07:58.529Z,40.98
2023-05-21T13:10:27.453Z,41.39
2023-05-21T13:12:53.965Z,40.62
2023-05-21T13:15:20.862Z,39.94
2023-05-21T13:17:49.755Z,39.96
2023-05-21T13:20:34.053Z,39.69
2023-05-21T13:23:01.762Z,40.74
2023-05-21T13:25:30.232Z,40.93
2023-05-21T13:27:57.621Z,40.93
2023-05-21T13:30:24.114Z,40.45
2023-05-21T13:32:52.944Z,41.54
2023-05-21T13:35:19.935Z,41.57
2023-05-21T13:37:46.483Z,41.41
2023-05-21T13:40:15.266Z,41.71
2023-05-21T13:42:47.340Z,41.93
2023-05-21T13:45:16.311Z,41.56
2023-05-21T13:47:45.477Z,41.07
2023-05-21T13:50:12.859Z,40.98
2023-05-21T13:52:39.855Z,40.96
2023-05-21T13:55:06.792Z,40.75
2023-05-21T13:57:34.049Z,40.42
2023-05-21T14:00:01.047Z,40.78
2023-05-21T14:02:27.967Z,40.10
2023-05-21T14:04:55.235Z,41.13
2023-05-21T14:07:22.332Z,41.12
2023-05-21T14:09:49.787Z,40.78
2023-05-21T14:12:16.995Z,40.71
2023-05-21T14:14:43.857Z,40.57
2023-05-21T14:17:10.441Z,40.33
2023-05-21T14:19:36.992Z,39.88
2023-05-21T14:22:03.812Z,39.88
2023-05-21T14:24:30.364Z,39.58
2023-05-21T14:26:57.142Z,39.74
2023-05-21T14:29:23.934Z,40.03
2023-05-21T14:31:50.835Z,40.08
2023-05-21T14:34:17.956Z,40.08
2023-05-21T14:36:45.183Z,39.20
2023-05-21T14:39:11.706Z,40.33
2023-05-21T14:41:39.847Z,40.33
2023-05-21T14:44:06.893Z,39.40
2023-05-21T14:46:33.612Z,39.38
2023-05-21T14:49:00.710Z,40.39
2023-05-21T14:51:27.291Z,39.96
2023-05-21T14:53:53.883Z,39.22
2023-05-21T14:56:22.425Z,39.31
2023-05-21T14:58:48.974Z,39.39
2023-05-21T15:01:15.597Z,39.52
2023-05-21T15:03:42.445Z,39.40
2023-05-21T15:06:09.534Z,39.88
2023-05-21T15:08:36.390Z,39.22
2023-05-21T15:11:03.349Z,39.08
2023-05-21T15:13:31.320Z,38.90
2023-05-21T15:16:00.305Z,39.15
2023-05-21T15:18:26.874Z,39.04
2023-05-21T15:20:53.381Z,38.93
2023-05-21T15:23:20.086Z,39.38
2023-05-21T15:25:46.870Z,39.29
2023-05-21T15:28:13.854Z,38.60
2023-05-21T15:30:40.621Z,38.34
2023-05-21T15:33:07.375Z,38.93
2023-05-21T15:35:36.466Z,39.14
2023-05-21T15:38:04.585Z,39.40
2023-05-21T15:40:32.066Z,38.70
2023-05-21T15:42:58.529Z,39.22
2023-05-21T15:45:25.550Z,38.74
2023-05-21T15:47:52.101Z,39.24
2023-05-21T15:50:18.628Z,39.13
2023-05-21T15:52:45.113Z,38.99
2023-05-21T15:55:11.710Z,39.06
2023-05-21T15:57:38.558Z,38.97
2023-05-21T16:00:06.301Z,39.27
2023-05-21T16:02:33.349Z,38.91
2023-05-21T16:04:59.821Z,38.74
2023-05-21T16:07:28.512Z,38.97
2023-05-21T16:09:55.237Z,39.26
2023-05-21T16:12:24.029Z,39.35
2023-05-21T16:14:50.578Z,39.39
2023-05-21T16:17:19.879Z,39.29
2023-05-21T16:19:47.699Z,39.67
2023-05-21T16:22:15.897Z,39.67
2023-05-21T16:24:42.552Z,38.84
2023-05-21T16:27:09.072Z,38.83
2023-05-21T16:29:35.544Z,38.38
2023-05-21T16:32:02.441Z,38.55
2023-05-21T16:34:29.292Z,38.65
2023-05-21T16:36:56.158Z,38.76
2023-05-21T16:39:22.665Z,38.78
2023-05-21T16:41:49.485Z,38.84
2023-05-21T16:44:16.576Z,38.81
2023-05-21T16:46:43.041Z,39.09
2023-05-21T16:49:10.252Z,38.75
2023-05-21T16:51:36.975Z,38.66
2023-05-21T16:54:04.725Z,38.85
2023-05-21T16:56:31.266Z,38.72
2023-05-21T16:58:57.984Z,38.87
2023-05-21T17:01:24.660Z,38.70
2023-05-21T17:03:51.353Z,38.51
2023-05-21T17:06:18.005Z,39.08
2023-05-21T17:08:45.876Z,39.28
2023-05-21T17:11:12.432Z,38.60
2023-05-21T17:13:39.179Z,38.89
2023-05-21T17:16:06.044Z,39.37
2023-05-21T17:18:32.883Z,38.96
2023-05-21T17:20:59.384Z,38.81
2023-05-21T17:23:25.841Z,39.69
2023-05-21T17:25:53.671Z,39.69
2023-05-21T17:28:20.153Z,39.59
2023-05-21T17:30:49.873Z,39.42
2023-05-21T17:33:16.884Z,40.44
2023-05-21T17:35:44.076Z,40.14
2023-05-21T17:38:11.431Z,39.96
2023-05-21T17:40:37.917Z,40.05
2023-05-21T17:43:05.060Z,39.96
2023-05-21T17:45:32.117Z,40.72
2023-05-21T17:48:00.516Z,40.35
2023-05-21T17:50:30.764Z,40.79
2023-05-21T17:52:57.677Z,40.91
2023-05-21T17:55:27.341Z,40.75
2023-05-21T17:57:54.126Z,40.73
2023-05-21T18:00:20.936Z,40.91
2023-05-21T18:02:47.534Z,40.90
2023-05-21T18:05:14.396Z,41.25
2023-05-21T18:07:41.314Z,41.32
2023-05-21T18:10:08.189Z,41.37
2023-05-21T18:12:35.470Z,41.39
2023-05-21T18:15:02.276Z,41.58
2023-05-21T18:17:29.052Z,41.68
2023-05-21T18:19:55.562Z,41.93
2023-05-21T18:22:22.334Z,41.93
2023-05-21T18:24:49.590Z,42.03
2023-05-21T18:27:16.352Z,42.00
2023-05-21T18:29:42.812Z,42.35
2023-05-21T18:32:10.943Z,42.53
2023-05-21T18:34:37.461Z,42.67
2023-05-21T18:37:04.913Z,42.91
2023-05-21T18:39:31.335Z,43.13
2023-05-21T18:42:12.140Z,43.28
2023-05-21T18:44:47.577Z,43.51
2023-05-21T18:47:15.694Z,43.38
2023-05-21T18:49:42.331Z,43.81
2023-05-21T18:52:09.172Z,44.21
2023-05-21T18:54:35.730Z,44.21
2023-05-21T18:57:02.444Z,44.46
2023-05-21T18:59:29.597Z,44.73
2023-05-21T19:01:56.908Z,45.11
2023-05-21T19:04:23.520Z,45.58
2023-05-21T19:06:50.084Z,45.51
2023-05-21T19:09:16.563Z,45.94
2023-05-21T19:11:43.110Z,46.26
2023-05-21T19:14:12.309Z,46.40
2023-05-21T19:16:40.678Z,46.84
2023-05-21T19:19:09.141Z,46.83
2023-05-21T19:21:36.244Z,46.86
2023-05-21T19:24:05.620Z,47.07
2023-05-21T19:26:32.713Z,46.77
2023-05-21T19:28:59.183Z,47.13
2023-05-21T19:31:25.773Z,47.20
2023-05-21T19:33:52.754Z,47.23
2023-05-21T19:36:21.133Z,47.15
2023-05-21T19:38:49.473Z,47.33
2023-05-21T19:41:17.798Z,47.02
2023-05-21T19:43:47.633Z,46.78
2023-05-21T19:46:18.168Z,47.05
2023-05-21T19:48:47.781Z,47.25
2023-05-21T19:51:14.331Z,47.59
2023-05-21T19:53:42.740Z,47.49
2023-05-21T19:56:09.473Z,47.99
2023-05-21T19:58:36.248Z,47.72
2023-05-21T20:01:03.489Z,47.92
2023-05-21T20:03:36.026Z,47.82
2023-05-21T20:06:03.361Z,47.97
2023-05-21T20:08:33.121Z,47.85
2023-05-21T20:11:02.634Z,47.71
2023-05-21T20:13:29.522Z,47.51
2023-05-21T20:15:57.100Z,47.39
2023-05-21T20:18:25.412Z,47.64
2023-05-21T20:20:53.197Z,47.43
2023-05-21T20:23:19.653Z,47.50
2023-05-21T20:25:46.489Z,47.63
2023-05-21T20:28:13.049Z,47.61
2023-05-21T20:30:58.060Z,47.96
2023-05-21T20:33:28.119Z,48.02
2023-05-21T20:35:54.665Z,47.95
2023-05-21T20:38:21.289Z,47.78
2023-05-21T20:40:50.193Z,48.20
2023-05-21T20:43:19.669Z,48.56
2023-05-21T20:45:49.848Z,48.82
2023-05-21T20:48:16.793Z,49.15
2023-05-21T20:50:44.199Z,49.07
2023-05-21T20:53:12.385Z,49.33
2023-05-21T20:55:44.419Z,49.60
2023-05-21T20:58:11.652Z,49.85
2023-05-21T21:00:41.819Z,50.46
2023-05-21T21:03:11.424Z,50.16
2023-05-21T21:05:40.021Z,50.60
2023-05-21T21:08:08.467Z,50.51
2023-05-21T21:10:36.099Z,50.76
2023-05-21T21:13:03.459Z,50.68
2023-05-21T21:15:31.197Z,51.22
2023-05-21T21:17:58.163Z,51.31
2023-05-21T21:20:24.777Z,51.32
2023-05-21T21:22:53.556Z,51.49
2023-05-21T21:25:20.646Z,51.73
2023-05-21T21:27:49.462Z,51.90
2023-05-21T21:30:16.368Z,52.33
2023-05-21T21:32:43.210Z,52.40
2023-05-21T21:35:10.343Z,52.60
2023-05-21T21:37:36.885Z,52.84
2023-05-21T21:40:03.649Z,52.89
2023-05-21T21:42:30.382Z,52.69
2023-05-21T21:44:56.994Z,53.06
2023-05-21T21:47:23.571Z,53.27
2023-05-21T21:49:50.095Z,53.69
2023-05-21T21:52:17.906Z,53.86
2023-05-21T21:54:44.626Z,53.95
2023-05-21T21:57:11.370Z,54.05
2023-05-21T21:59:38.662Z,54.31
2023-05-21T22:02:06.024Z,54.52
2023-05-21T22:04:32.679Z,54.16
2023-05-21T22:06:59.221Z,54.42
2023-05-21T22:09:26.141Z,54.38
2023-05-21T22:11:53.466Z,54.38
2023-05-21T22:14:22.125Z,54.53
2023-05-21T22:16:48.857Z,54.17
2023-05-21T22:19:18.477Z,54.12
2023-05-21T22:21:46.419Z,54.36
2023-05-21T22:24:24.090Z,54.24
2023-05-21T22:26:57.968Z,54.33
2023-05-21T22:29:26.905Z,54.41
2023-05-21T22:31:54.159Z,54.47
2023-05-21T22:34:23.036Z,54.54
2023-05-21T22:36:51.608Z,54.92
2023-05-21T22:39:18.368Z,54.75
2023-05-21T22:41:45.974Z,54.74
2023-05-21T22:44:16.243Z,54.94
2023-05-21T22:46:43.870Z,55.28
2023-05-21T22:49:10.731Z,55.39
2023-05-21T22:51:39.895Z,55.53
2023-05-21T22:54:06.609Z,55.71
2023-05-21T22:56:35.792Z,56.06
2023-05-21T22:59:03.758Z,56.12
2023-05-21T23:01:32.672Z,56.77
2023-05-21T23:03:59.840Z,56.56
2023-05-21T23:06:26.306Z,56.75
2023-05-21T23:08:53.037Z,57.15
2023-05-21T23:11:19.545Z,57.17
2023-05-21T23:13:46.352Z,57.42
2023-05-21T23:16:12.975Z,57.30
2023-05-21T23:18:43.742Z,57.46
2023-05-21T23:21:10.745Z,57.35
2023-05-21T23:23:38.565Z,57.72
2023-05-21T23:26:05.477Z,57.71
2023-05-21T23:28:33.694Z,58.07
2023-05-21T23:31:00.224Z,58.23
2023-05-21T23:33:27.209Z,58.16
2023-05-21T23:35:56.930Z,58.33
2023-05-21T23:38:24.874Z,58.52
2023-05-21T23:40:51.382Z,58.71
2023-05-21T23:43:18.167Z,58.92
2023-05-21T23:45:45.210Z,58.95
2023-05-21T23:48:14.522Z,59.04
2023-05-21T23:50:41.352Z,59.08
2023-05-21T23:53:08.268Z,59.14
2023-05-21T23:55:37.425Z,59.75
2023-05-21T23:58:04.240Z,59.66
